createdAt,value
2023-02-17T00:00:11.468Z,4.40
2023-02-17T00:05:34.543Z,4.42
2023-02-17T00:10:37.650Z,4.50
2023-02-17T00:15:41.002Z,4.50
2023-02-17T00:20:44.373Z,4.50
2023-02-17T00:25:47.529Z,4.50
2023-02-17T00:30:50.845Z,4.50
2023-02-17T00:35:54.023Z,4.54
2023-02-17T00:40:57.108Z,4.60
2023-02-17T00:46:00.834Z,4.60
2023-02-17T00:51:04.151Z,4.68
2023-02-17T00:56:08.686Z,4.70
2023-02-17T01:01:12.917Z,4.70
2023-02-17T01:06:38.977Z,4.70
2023-02-17T01:11:43.405Z,4.70
2023-02-17T01:16:49.631Z,4.72
2023-02-17T01:21:52.784Z,4.80
2023-02-17T01:26:56.214Z,4.80
2023-02-17T01:31:59.332Z,4.90
2023-02-17T01:37:02.418Z,4.90
2023-02-17T01:42:05.438Z,4.88
2023-02-17T01:47:13.128Z,4.80
2023-02-17T01:52:25.760Z,4.88
2023-02-17T01:57:35.476Z,4.90
2023-02-17T02:02:42.729Z,4.90
2023-02-17T02:07:48.610Z,4.90
2023-02-17T02:12:51.698Z,4.90
2023-02-17T02:18:31.477Z,4.90
2023-02-17T02:24:06.732Z,4.94
2023-02-17T02:29:51.823Z,4.90
2023-02-17T02:35:19.192Z,4.90
2023-02-17T02:40:29.313Z,4.90
2023-02-17T02:45:33.102Z,4.92
2023-02-17T02:51:04.572Z,5.00
2023-02-17T02:57:24.673Z,5.00
2023-02-17T03:03:08.514Z,5.00
2023-02-17T03:08:36.726Z,5.00
2023-02-17T03:13:41.225Z,5.00
2023-02-17T03:18:44.313Z,5.00
2023-02-17T03:23:47.380Z,5.10
2023-02-17T03:28:50.618Z,5.10
2023-02-17T03:33:53.893Z,5.10
2023-02-17T03:38:58.181Z,5.10
2023-02-17T03:44:01.968Z,5.10
2023-02-17T03:49:05.162Z,5.20
2023-02-17T03:54:08.582Z,5.20
2023-02-17T03:59:11.702Z,5.26
2023-02-17T04:04:15.214Z,5.30
2023-02-17T04:09:18.416Z,5.34
2023-02-17T04:14:21.506Z,5.30
2023-02-17T04:19:24.628Z,5.30
2023-02-17T04:24:28.063Z,5.30
2023-02-17T04:29:33.272Z,5.30
2023-02-17T04:34:36.394Z,5.30
2023-02-17T04:39:39.494Z,5.30
2023-02-17T04:44:42.602Z,5.30
2023-02-17T04:49:45.703Z,5.30
2023-02-17T04:54:48.926Z,5.34
2023-02-17T04:59:52.022Z,5.40
2023-02-17T05:04:55.477Z,5.40
2023-02-17T05:09:58.670Z,5.42
2023-02-17T05:15:01.760Z,5.40
2023-02-17T05:20:06.964Z,5.36
2023-02-17T05:25:10.022Z,5.30
2023-02-17T05:30:13.967Z,5.30
2023-02-17T05:35:17.160Z,5.38
2023-02-17T05:40:20.566Z,5.40
2023-02-17T05:45:23.868Z,5.40
2023-02-17T05:50:27.208Z,5.40
2023-02-17T05:55:30.701Z,5.40
2023-02-17T06:00:33.809Z,5.50
2023-02-17T06:05:37.025Z,5.50
2023-02-17T06:10:42.889Z,5.46
2023-02-17T06:15:47.051Z,5.40
2023-02-17T06:20:50.656Z,5.40
2023-02-17T06:25:54.665Z,5.48
2023-02-17T06:30:57.782Z,5.50
2023-02-17T06:36:01.297Z,5.52
2023-02-17T06:41:04.723Z,5.56
2023-02-17T06:46:08.220Z,5.60
2023-02-17T06:51:11.763Z,5.60
2023-02-17T06:56:14.964Z,5.60
2023-02-17T07:01:21.865Z,5.60
2023-02-17T07:06:26.035Z,5.58
2023-02-17T07:11:31.665Z,5.50
2023-02-17T07:16:34.913Z,5.58
2023-02-17T07:21:38.080Z,5.60
2023-02-17T07:26:42.076Z,5.60
2023-02-17T07:31:45.244Z,5.60
2023-02-17T07:36:48.609Z,5.60
2023-02-17T07:41:51.812Z,5.60
2023-02-17T07:46:55.211Z,5.64
2023-02-17T07:51:58.314Z,5.70
2023-02-17T07:57:01.634Z,5.70
2023-02-17T08:02:04.890Z,5.60
2023-02-17T08:07:08.357Z,5.60
2023-02-17T08:12:39.207Z,5.70
2023-02-17T08:17:43.339Z,5.70
2023-02-17T08:22:46.449Z,5.78
2023-02-17T08:27:49.684Z,5.80
2023-02-17T08:32:52.866Z,5.90
2023-02-17T08:37:56.623Z,5.96
2023-02-17T08:43:00.799Z,6.00
2023-02-17T08:48:05.911Z,6.00
2023-02-17T08:53:09.180Z,6.04
2023-02-17T08:58:12.409Z,6.10
2023-02-17T09:03:16.650Z,6.12
2023-02-17T09:08:19.895Z,6.12
2023-02-17T09:13:23.250Z,6.20
2023-02-17T09:18:26.883Z,6.24
2023-02-17T09:23:30.122Z,6.30
2023-02-17T09:28:34.657Z,6.30
2023-02-17T09:33:38.136Z,6.30
2023-02-17T09:38:42.680Z,6.40
2023-02-17T09:43:46.981Z,6.40
2023-02-17T09:48:54.678Z,6.50
2023-02-17T09:54:16.236Z,6.50
2023-02-17T09:59:32.192Z,6.60
2023-02-17T10:04:42.712Z,6.60
2023-02-17T10:09:58.002Z,6.56
2023-02-17T10:15:12.455Z,6.60
2023-02-17T10:21:05.173Z,6.60
2023-02-17T10:27:01.710Z,6.68
2023-02-17T10:32:10.637Z,6.70
2023-02-17T10:37:38.943Z,6.70
2023-02-17T10:42:42.391Z,6.68
2023-02-17T10:47:45.816Z,6.64
2023-02-17T10:52:51.097Z,6.60
2023-02-17T10:58:10.751Z,6.50
2023-02-17T11:03:29.335Z,6.50
2023-02-17T11:08:40.537Z,6.50
2023-02-17T11:14:26.644Z,6.50
2023-02-17T11:19:35.853Z,6.50
2023-02-17T11:24:39.098Z,6.50
2023-02-17T11:29:42.412Z,6.60
2023-02-17T11:34:58.588Z,6.60
2023-02-17T11:40:26.269Z,6.60
2023-02-17T11:46:20.419Z,6.60
2023-02-17T11:51:38.984Z,6.60
2023-02-17T11:57:01.641Z,6.60
2023-02-17T12:02:07.517Z,6.60
2023-02-17T12:07:34.396Z,6.60
2023-02-17T12:12:46.280Z,6.60
2023-02-17T12:17:56.753Z,6.60
2023-02-17T12:23:46.558Z,6.60
2023-02-17T12:29:08.617Z,6.60
2023-02-17T12:34:37.436Z,6.60
2023-02-17T12:39:53.541Z,6.64
2023-02-17T12:45:03.707Z,6.64
2023-02-17T12:50:33.123Z,6.70
2023-02-17T12:55:54.696Z,6.70
2023-02-17T13:01:22.053Z,6.64
2023-02-17T13:06:31.212Z,6.64
2023-02-17T13:11:36.461Z,6.68
2023-02-17T13:16:47.744Z,6.68
2023-02-17T13:21:57.080Z,6.66
2023-02-17T13:27:31.443Z,6.68
2023-02-17T13:32:38.079Z,6.70
2023-02-17T13:37:45.687Z,6.70
2023-02-17T13:42:53.055Z,6.70
2023-02-17T13:48:12.823Z,6.70
2023-02-17T13:53:30.449Z,6.70
2023-02-17T13:58:37.893Z,6.70
2023-02-17T14:03:41.015Z,6.70
2023-02-17T14:08:44.311Z,6.80
2023-02-17T14:13:50.359Z,6.80
2023-02-17T14:19:11.171Z,6.80
2023-02-17T14:24:37.275Z,6.80
2023-02-17T14:29:49.032Z,6.90
2023-02-17T14:34:52.168Z,6.90
2023-02-17T14:39:55.375Z,6.90
2023-02-17T14:44:58.686Z,6.90
2023-02-17T14:50:01.899Z,6.92
2023-02-17T14:55:22.522Z,7.00
2023-02-17T15:00:27.766Z,7.00
2023-02-17T15:05:31.198Z,6.98
2023-02-17T15:10:36.248Z,6.92
2023-02-17T15:15:40.886Z,7.00
2023-02-17T15:20:48.063Z,7.00
2023-02-17T15:25:53.506Z,7.00
2023-02-17T15:30:57.186Z,7.00
2023-02-17T15:36:00.924Z,7.06
2023-02-17T15:41:06.046Z,7.10
2023-02-17T15:46:15.510Z,7.10
2023-02-17T15:51:20.067Z,7.10
2023-02-17T15:56:29.998Z,7.12
2023-02-17T16:01:36.374Z,7.20
2023-02-17T16:06:40.228Z,7.20
2023-02-17T16:11:52.760Z,7.20
2023-02-17T16:16:56.258Z,7.20
2023-02-17T16:21:59.360Z,7.24
2023-02-17T16:27:02.907Z,7.30
2023-02-17T16:32:06.743Z,7.30
2023-02-17T16:37:16.121Z,7.30
2023-02-17T16:42:19.361Z,7.32
2023-02-17T16:47:26.075Z,7.40
2023-02-17T16:52:29.262Z,7.40
2023-02-17T16:57:32.693Z,7.50
2023-02-17T17:02:36.321Z,7.50
2023-02-17T17:07:41.796Z,7.50
2023-02-17T17:12:46.815Z,7.58
2023-02-17T17:18:02.737Z,7.60
2023-02-17T17:23:11.467Z,7.66
2023-02-17T17:28:16.957Z,7.70
2023-02-17T17:33:20.157Z,7.72
2023-02-17T17:38:23.328Z,7.80
2023-02-17T17:43:26.748Z,7.80
2023-02-17T17:48:30.149Z,7.90
2023-02-17T17:53:33.598Z,7.90
2023-02-17T17:58:39.263Z,8.00
2023-02-17T18:03:43.575Z,8.00
2023-02-17T18:08:50.757Z,8.10
2023-02-17T18:13:58.803Z,8.10
2023-02-17T18:19:06.207Z,8.20
2023-02-17T18:24:09.716Z,8.20
2023-02-17T18:29:13.366Z,8.30
2023-02-17T18:34:16.553Z,8.30
2023-02-17T18:39:19.872Z,8.34
2023-02-17T18:44:23.473Z,8.40
2023-02-17T18:49:26.981Z,8.40
2023-02-17T18:54:30.296Z,8.50
2023-02-17T18:59:33.856Z,8.50
2023-02-17T19:04:40.926Z,8.50
2023-02-17T19:09:44.277Z,8.60
2023-02-17T19:14:53.331Z,8.62
2023-02-17T19:19:56.575Z,8.70
2023-02-17T19:24:59.909Z,8.70
2023-02-17T19:30:03.568Z,8.72
2023-02-17T19:35:08.708Z,8.80
2023-02-17T19:40:13.425Z,8.80
2023-02-17T19:45:17.649Z,8.80
2023-02-17T19:50:21.393Z,8.88
2023-02-17T19:55:25.601Z,8.90
2023-02-17T20:00:29.828Z,8.90
2023-02-17T20:05:39.446Z,8.90
2023-02-17T20:10:45.374Z,8.80
2023-02-17T20:16:07.679Z,8.80
2023-02-17T20:21:16.175Z,8.78
2023-02-17T20:26:28.060Z,8.70
2023-02-17T20:31:31.593Z,8.62
2023-02-17T20:36:35.403Z,8.56
2023-02-17T20:41:38.607Z,8.50
2023-02-17T20:46:46.703Z,8.40
2023-02-17T20:51:50.260Z,8.36
2023-02-17T20:56:53.684Z,8.26
2023-02-17T21:01:56.888Z,8.10
2023-02-17T21:07:01.432Z,8.00
2023-02-17T21:12:05.864Z,7.90
2023-02-17T21:17:09.572Z,7.80
2023-02-17T21:22:12.680Z,7.70
2023-02-17T21:27:16.495Z,7.70
2023-02-17T21:32:20.710Z,7.62
2023-02-17T21:37:24.065Z,7.58
2023-02-17T21:42:46.208Z,7.56
2023-02-17T21:47:49.400Z,7.50
2023-02-17T21:52:53.354Z,7.40
2023-02-17T21:57:56.433Z,7.46
2023-02-17T22:02:59.544Z,7.40
2023-02-17T22:08:02.748Z,7.40
2023-02-17T22:13:06.587Z,7.30
2023-02-17T22:18:09.777Z,7.30
2023-02-17T22:23:12.897Z,7.24
2023-02-17T22:28:17.062Z,7.20
2023-02-17T22:33:20.220Z,7.20
2023-02-17T22:38:23.331Z,7.20
2023-02-17T22:43:26.644Z,7.20
2023-02-17T22:48:33.046Z,7.12
2023-02-17T22:53:37.781Z,7.10
2023-02-17T22:58:41.489Z,7.14
2023-02-17T23:03:45.839Z,7.14
2023-02-17T23:08:50.593Z,7.20
2023-02-17T23:13:53.686Z,7.10
2023-02-17T23:18:57.194Z,7.10
2023-02-17T23:24:00.405Z,7.00
2023-02-17T23:29:04.845Z,6.90
2023-02-17T23:34:08.884Z,6.90
2023-02-17T23:39:16.711Z,6.80
2023-02-17T23:44:19.997Z,6.70
2023-02-17T23:49:23.216Z,6.70
2023-02-17T23:54:26.823Z,6.70
2023-02-17T23:59:30.461Z,6.70
